sensor_id;sensor_type;location;lat;lon;timestamp;temperature;humidity
3925;DHT22;1977;52.274;10.518;2023-05-23T00:01:45;21.50;99.90
3925;DHT22;1977;52.274;10.518;2023-05-23T00:04:12;21.60;99.90
3925;DHT22;1977;52.274;10.518;2023-05-23T00:06:43;21.60;99.90
3925;DHT22;1977;52.274;10.518;2023-05-23T00:09:12;21.70;99.90
3925;DHT22;1977;52.274;10.518;2023-05-23T00:11:38;21.80;99.90
3925;DHT22;1977;52.274;10.518;2023-05-23T00:14:10;21.70;99.90
3925;DHT22;1977;52.274;10.518;2023-05-23T00:16:39;21.70;99.90
3925;DHT22;1977;52.274;10.518;2023-05-23T00:19:07;21.60;99.90
3925;DHT22;1977;52.274;10.518;2023-05-23T00:21:34;21.60;99.90
3925;DHT22;1977;52.274;10.518;2023-05-23T00:24:01;21.60;99.90
3925;DHT22;1977;52.274;10.518;2023-05-23T00:26:29;21.40;99.90
3925;DHT22;1977;52.274;10.518;2023-05-23T00:28:58;21.30;99.90
3925;DHT22;1977;52.274;10.518;2023-05-23T00:31:27;21.40;99.90
3925;DHT22;1977;52.274;10.518;2023-05-23T00:33:53;21.40;99.90
3925;DHT22;1977;52.274;10.518;2023-05-23T00:36:20;21.50;99.90
3925;DHT22;1977;52.274;10.518;2023-05-23T00:38:48;21.40;99.90
3925;DHT22;1977;52.274;10.518;2023-05-23T00:41:15;21.30;99.90
3925;DHT22;1977;52.274;10.518;2023-05-23T00:43:49;21.20;99.90
3925;DHT22;1977;52.274;10.518;2023-05-23T00:46:16;21.30;99.90
3925;DHT22;1977;52.274;10.518;2023-05-23T00:48:44;21.30;99.90
3925;DHT22;1977;52.274;10.518;2023-05-23T00:51:12;21.40;99.90
3925;DHT22;1977;52.274;10.518;2023-05-23T00:53:39;21.30;99.90
3925;DHT22;1977;52.274;10.518;2023-05-23T00:56:06;21.30;99.90
3925;DHT22;1977;52.274;10.518;2023-05-23T00:58:33;21.40;99.90
3925;DHT22;1977;52.274;10.518;2023-05-23T01:01:02;21.30;99.90
3925;DHT22;1977;52.274;10.518;2023-05-23T01:03:29;21.30;99.90
3925;DHT22;1977;52.274;10.518;2023-05-23T01:05:57;21.30;99.90
3925;DHT22;1977;52.274;10.518;2023-05-23T01:08:24;21.30;99.90
3925;DHT22;1977;52.274;10.518;2023-05-23T01:10:51;21.30;99.90
3925;DHT22;1977;52.274;10.518;2023-05-23T01:13:25;21.30;99.90
3925;DHT22;1977;52.274;10.518;2023-05-23T01:16:00;21.30;99.90
3925;DHT22;1977;52.274;10.518;2023-05-23T01:18:33;21.20;99.90
3925;DHT22;1977;52.274;10.518;2023-05-23T01:21:07;21.30;99.90
3925;DHT22;1977;52.274;10.518;2023-05-23T01:26:55;21.20;99.90
3925;DHT22;1977;52.274;10.518;2023-05-23T01:29:27;21.20;99.90
3925;DHT22;1977;52.274;10.518;2023-05-23T01:31:56;21.30;99.90
3925;DHT22;1977;52.274;10.518;2023-05-23T01:34:24;21.30;99.90
3925;DHT22;1977;52.274;10.518;2023-05-23T01:36:53;21.30;99.90
3925;DHT22;1977;52.274;10.518;2023-05-23T01:39:21;21.20;99.90
3925;DHT22;1977;52.274;10.518;2023-05-23T01:41:48;21.20;99.90
3925;DHT22;1977;52.274;10.518;2023-05-23T01:44:15;21.10;99.90
3925;DHT22;1977;52.274;10.518;2023-05-23T01:46:44;21.00;99.90
3925;DHT22;1977;52.274;10.518;2023-05-23T01:49:13;21.00;99.90
3925;DHT22;1977;52.274;10.518;2023-05-23T01:51:44;21.00;99.90
3925;DHT22;1977;52.274;10.518;2023-05-23T01:54:12;21.00;99.90
3925;DHT22;1977;52.274;10.518;2023-05-23T01:56:41;21.00;99.90
3925;DHT22;1977;52.274;10.518;2023-05-23T01:59:08;21.10;99.90
3925;DHT22;1977;52.274;10.518;2023-05-23T02:01:36;21.00;99.90
3925;DHT22;1977;52.274;10.518;2023-05-23T02:04:05;20.90;99.90
3925;DHT22;1977;52.274;10.518;2023-05-23T02:06:32;20.90;99.90
3925;DHT22;1977;52.274;10.518;2023-05-23T02:08:59;20.90;99.90
3925;DHT22;1977;52.274;10.518;2023-05-23T02:11:26;20.80;99.90
3925;DHT22;1977;52.274;10.518;2023-05-23T02:13:52;20.80;99.90
3925;DHT22;1977;52.274;10.518;2023-05-23T02:16:19;20.80;99.90
3925;DHT22;1977;52.274;10.518;2023-05-23T02:18:47;20.80;99.90
3925;DHT22;1977;52.274;10.518;2023-05-23T02:21:18;20.80;99.90
3925;DHT22;1977;52.274;10.518;2023-05-23T02:23:45;20.80;99.90
3925;DHT22;1977;52.274;10.518;2023-05-23T02:26:12;20.90;99.90
3925;DHT22;1977;52.274;10.518;2023-05-23T02:28:39;20.80;99.90
3925;DHT22;1977;52.274;10.518;2023-05-23T02:31:06;20.70;99.90
3925;DHT22;1977;52.274;10.518;2023-05-23T02:33:33;20.70;99.90
3925;DHT22;1977;52.274;10.518;2023-05-23T02:36:00;20.80;99.90
3925;DHT22;1977;52.274;10.518;2023-05-23T02:38:29;20.70;99.90
3925;DHT22;1977;52.274;10.518;2023-05-23T02:40:56;20.70;99.90
3925;DHT22;1977;52.274;10.518;2023-05-23T02:43:23;20.80;99.90
3925;DHT22;1977;52.274;10.518;2023-05-23T02:45:50;20.80;99.90
3925;DHT22;1977;52.274;10.518;2023-05-23T02:48:17;20.70;99.90
3925;DHT22;1977;52.274;10.518;2023-05-23T02:50:44;20.70;99.90
3925;DHT22;1977;52.274;10.518;2023-05-23T02:53:11;20.80;99.90
3925;DHT22;1977;52.274;10.518;2023-05-23T02:55:39;20.80;99.90
3925;DHT22;1977;52.274;10.518;2023-05-23T02:58:07;20.70;99.90
3925;DHT22;1977;52.274;10.518;2023-05-23T03:00:34;20.60;99.90
3925;DHT22;1977;52.274;10.518;2023-05-23T03:03:01;20.60;99.90
3925;DHT22;1977;52.274;10.518;2023-05-23T03:05:28;20.80;99.90
3925;DHT22;1977;52.274;10.518;2023-05-23T03:07:55;20.60;99.90
3925;DHT22;1977;52.274;10.518;2023-05-23T03:10:22;20.50;99.90
3925;DHT22;1977;52.274;10.518;2023-05-23T03:12:50;20.40;99.90
3925;DHT22;1977;52.274;10.518;2023-05-23T03:15:17;20.50;99.90
3925;DHT22;1977;52.274;10.518;2023-05-23T03:17:44;20.30;99.90
3925;DHT22;1977;52.274;10.518;2023-05-23T03:20:10;20.30;99.90
3925;DHT22;1977;52.274;10.518;2023-05-23T03:22:37;20.20;99.90
3925;DHT22;1977;52.274;10.518;2023-05-23T03:25:07;20.20;99.90
3925;DHT22;1977;52.274;10.518;2023-05-23T03:27:34;20.20;99.90
3925;DHT22;1977;52.274;10.518;2023-05-23T03:30:03;20.20;99.90
3925;DHT22;1977;52.274;10.518;2023-05-23T03:32:30;20.10;99.90
3925;DHT22;1977;52.274;10.518;2023-05-23T03:34:57;20.20;99.90
3925;DHT22;1977;52.274;10.518;2023-05-23T03:37:24;20.10;99.90
3925;DHT22;1977;52.274;10.518;2023-05-23T03:39:50;20.00;99.90
3925;DHT22;1977;52.274;10.518;2023-05-23T03:42:17;20.00;99.90
3925;DHT22;1977;52.274;10.518;2023-05-23T03:44:44;19.90;99.90
3925;DHT22;1977;52.274;10.518;2023-05-23T03:47:12;19.80;99.90
3925;DHT22;1977;52.274;10.518;2023-05-23T03:49:39;19.80;99.90
3925;DHT22;1977;52.274;10.518;2023-05-23T03:52:06;19.90;99.90
3925;DHT22;1977;52.274;10.518;2023-05-23T03:54:32;19.90;99.90
3925;DHT22;1977;52.274;10.518;2023-05-23T03:56:59;19.90;99.90
3925;DHT22;1977;52.274;10.518;2023-05-23T03:59:27;19.90;99.90
3925;DHT22;1977;52.274;10.518;2023-05-23T04:01:54;19.90;99.90
3925;DHT22;1977;52.274;10.518;2023-05-23T04:04:24;19.80;99.90
3925;DHT22;1977;52.274;10.518;2023-05-23T04:06:51;19.70;99.90
3925;DHT22;1977;52.274;10.518;2023-05-23T04:09:18;19.80;99.90
3925;DHT22;1977;52.274;10.518;2023-05-23T04:11:45;19.80;99.90
3925;DHT22;1977;52.274;10.518;2023-05-23T04:14:12;19.80;99.90
3925;DHT22;1977;52.274;10.518;2023-05-23T04:16:39;19.60;99.90
3925;DHT22;1977;52.274;10.518;2023-05-23T04:19:06;19.70;99.90
3925;DHT22;1977;52.274;10.518;2023-05-23T04:21:35;19.70;99.90
3925;DHT22;1977;52.274;10.518;2023-05-23T04:24:02;19.70;99.90
3925;DHT22;1977;52.274;10.518;2023-05-23T04:26:28;19.70;99.90
3925;DHT22;1977;52.274;10.518;2023-05-23T04:28:55;19.60;99.90
3925;DHT22;1977;52.274;10.518;2023-05-23T04:31:23;19.60;99.90
3925;DHT22;1977;52.274;10.518;2023-05-23T04:33:50;19.60;99.90
3925;DHT22;1977;52.274;10.518;2023-05-23T04:36:17;19.60;99.90
3925;DHT22;1977;52.274;10.518;2023-05-23T04:38:45;19.50;99.90
3925;DHT22;1977;52.274;10.518;2023-05-23T04:41:12;19.50;99.90
3925;DHT22;1977;52.274;10.518;2023-05-23T04:43:40;19.60;99.90
3925;DHT22;1977;52.274;10.518;2023-05-23T04:46:08;19.70;99.90
3925;DHT22;1977;52.274;10.518;2023-05-23T04:48:34;19.60;99.90
3925;DHT22;1977;52.274;10.518;2023-05-23T04:51:01;19.70;99.90
3925;DHT22;1977;52.274;10.518;2023-05-23T04:53:32;19.60;99.90
3925;DHT22;1977;52.274;10.518;2023-05-23T04:56:00;19.50;99.90
3925;DHT22;1977;52.274;10.518;2023-05-23T04:58:27;19.40;99.90
3925;DHT22;1977;52.274;10.518;2023-05-23T05:00:54;19.50;99.90
3925;DHT22;1977;52.274;10.518;2023-05-23T05:03:21;19.40;99.90
3925;DHT22;1977;52.274;10.518;2023-05-23T05:05:49;19.40;99.90
3925;DHT22;1977;52.274;10.518;2023-05-23T05:08:16;19.40;99.90
3925;DHT22;1977;52.274;10.518;2023-05-23T05:10:44;19.40;99.90
3925;DHT22;1977;52.274;10.518;2023-05-23T05:13:12;19.40;99.90
3925;DHT22;1977;52.274;10.518;2023-05-23T05:15:39;19.40;99.90
3925;DHT22;1977;52.274;10.518;2023-05-23T05:18:07;19.50;99.90
3925;DHT22;1977;52.274;10.518;2023-05-23T05:20:33;19.50;99.90
3925;DHT22;1977;52.274;10.518;2023-05-23T05:23:00;19.60;99.90
3925;DHT22;1977;52.274;10.518;2023-05-23T05:25:27;19.60;99.90
3925;DHT22;1977;52.274;10.518;2023-05-23T05:27:56;19.70;99.90
3925;DHT22;1977;52.274;10.518;2023-05-23T05:30:24;19.60;99.90
3925;DHT22;1977;52.274;10.518;2023-05-23T05:32:51;19.50;99.90
3925;DHT22;1977;52.274;10.518;2023-05-23T05:35:18;19.50;99.90
3925;DHT22;1977;52.274;10.518;2023-05-23T05:37:45;19.40;99.90
3925;DHT22;1977;52.274;10.518;2023-05-23T05:40:12;19.40;99.90
3925;DHT22;1977;52.274;10.518;2023-05-23T05:42:39;19.30;99.90
3925;DHT22;1977;52.274;10.518;2023-05-23T05:45:06;19.40;99.90
3925;DHT22;1977;52.274;10.518;2023-05-23T05:47:34;19.60;99.90
3925;DHT22;1977;52.274;10.518;2023-05-23T05:50:03;19.70;99.90
3925;DHT22;1977;52.274;10.518;2023-05-23T05:52:30;19.70;99.90
3925;DHT22;1977;52.274;10.518;2023-05-23T05:54:59;19.70;99.90
3925;DHT22;1977;52.274;10.518;2023-05-23T05:57:25;19.80;99.90
3925;DHT22;1977;52.274;10.518;2023-05-23T05:59:52;20.10;99.90
3925;DHT22;1977;52.274;10.518;2023-05-23T06:02:19;20.00;99.90
3925;DHT22;1977;52.274;10.518;2023-05-23T06:04:47;20.00;99.90
3925;DHT22;1977;52.274;10.518;2023-05-23T06:07:14;20.00;99.90
3925;DHT22;1977;52.274;10.518;2023-05-23T06:09:40;20.00;99.90
3925;DHT22;1977;52.274;10.518;2023-05-23T06:12:07;19.80;99.90
3925;DHT22;1977;52.274;10.518;2023-05-23T06:14:34;19.80;99.90
3925;DHT22;1977;52.274;10.518;2023-05-23T06:17:02;19.80;99.90
3925;DHT22;1977;52.274;10.518;2023-05-23T06:19:29;19.80;99.90
3925;DHT22;1977;52.274;10.518;2023-05-23T06:21:57;19.70;99.90
3925;DHT22;1977;52.274;10.518;2023-05-23T06:24:23;19.70;99.90
3925;DHT22;1977;52.274;10.518;2023-05-23T06:26:50;19.60;99.90
3925;DHT22;1977;52.274;10.518;2023-05-23T06:29:17;19.60;99.90
3925;DHT22;1977;52.274;10.518;2023-05-23T06:31:43;19.50;99.90
3925;DHT22;1977;52.274;10.518;2023-05-23T06:34:10;19.40;99.90
3925;DHT22;1977;52.274;10.518;2023-05-23T06:36:37;19.40;99.90
3925;DHT22;1977;52.274;10.518;2023-05-23T06:39:05;19.40;99.90
3925;DHT22;1977;52.274;10.518;2023-05-23T06:41:34;19.30;99.90
3925;DHT22;1977;52.274;10.518;2023-05-23T06:44:01;19.20;99.90
3925;DHT22;1977;52.274;10.518;2023-05-23T06:46:28;19.20;99.90
3925;DHT22;1977;52.274;10.518;2023-05-23T06:48:55;19.20;99.90
3925;DHT22;1977;52.274;10.518;2023-05-23T06:51:21;19.30;99.90
3925;DHT22;1977;52.274;10.518;2023-05-23T06:53:48;19.30;99.90
3925;DHT22;1977;52.274;10.518;2023-05-23T06:56:16;19.30;99.90
3925;DHT22;1977;52.274;10.518;2023-05-23T06:58:43;19.30;99.90
3925;DHT22;1977;52.274;10.518;2023-05-23T07:01:10;19.30;99.90
3925;DHT22;1977;52.274;10.518;2023-05-23T07:03:36;19.20;99.90
3925;DHT22;1977;52.274;10.518;2023-05-23T07:06:06;19.20;99.90
3925;DHT22;1977;52.274;10.518;2023-05-23T07:08:33;19.20;99.90
3925;DHT22;1977;52.274;10.518;2023-05-23T07:10:59;19.10;99.90
3925;DHT22;1977;52.274;10.518;2023-05-23T07:13:27;19.10;99.90
3925;DHT22;1977;52.274;10.518;2023-05-23T07:15:54;19.20;99.90
3925;DHT22;1977;52.274;10.518;2023-05-23T07:18:21;19.10;99.90
3925;DHT22;1977;52.274;10.518;2023-05-23T07:20:48;19.20;99.90
3925;DHT22;1977;52.274;10.518;2023-05-23T07:23:15;19.50;99.90
3925;DHT22;1977;52.274;10.518;2023-05-23T07:25:42;19.20;99.90
3925;DHT22;1977;52.274;10.518;2023-05-23T07:28:10;19.20;99.90
3925;DHT22;1977;52.274;10.518;2023-05-23T07:30:38;19.30;99.90
3925;DHT22;1977;52.274;10.518;2023-05-23T07:33:05;19.30;99.90
3925;DHT22;1977;52.274;10.518;2023-05-23T07:35:32;19.20;99.90
3925;DHT22;1977;52.274;10.518;2023-05-23T07:37:58;19.30;99.90
3925;DHT22;1977;52.274;10.518;2023-05-23T07:40:25;19.40;99.90
3925;DHT22;1977;52.274;10.518;2023-05-23T07:42:52;19.40;99.90
3925;DHT22;1977;52.274;10.518;2023-05-23T07:45:20;19.50;99.90
3925;DHT22;1977;52.274;10.518;2023-05-23T07:47:48;19.30;99.90
3925;DHT22;1977;52.274;10.518;2023-05-23T07:50:15;19.30;99.90
3925;DHT22;1977;52.274;10.518;2023-05-23T07:52:42;19.30;99.90
3925;DHT22;1977;52.274;10.518;2023-05-23T07:55:09;19.30;99.90
3925;DHT22;1977;52.274;10.518;2023-05-23T07:57:36;19.30;99.90
3925;DHT22;1977;52.274;10.518;2023-05-23T08:00:03;19.30;99.90
3925;DHT22;1977;52.274;10.518;2023-05-23T08:02:31;19.40;99.90
3925;DHT22;1977;52.274;10.518;2023-05-23T08:04:59;19.30;99.90
3925;DHT22;1977;52.274;10.518;2023-05-23T08:07:26;19.30;99.90
3925;DHT22;1977;52.274;10.518;2023-05-23T08:09:53;19.30;99.90
3925;DHT22;1977;52.274;10.518;2023-05-23T08:12:19;19.30;99.90
3925;DHT22;1977;52.274;10.518;2023-05-23T08:14:46;19.30;99.90
3925;DHT22;1977;52.274;10.518;2023-05-23T08:17:13;19.20;99.90
3925;DHT22;1977;52.274;10.518;2023-05-23T08:19:40;19.20;99.90
3925;DHT22;1977;52.274;10.518;2023-05-23T08:22:08;19.30;99.90
3925;DHT22;1977;52.274;10.518;2023-05-23T08:24:35;19.20;99.90
3925;DHT22;1977;52.274;10.518;2023-05-23T08:27:02;19.30;99.90
3925;DHT22;1977;52.274;10.518;2023-05-23T08:29:28;19.10;99.90
3925;DHT22;1977;52.274;10.518;2023-05-23T08:31:55;19.10;99.90
3925;DHT22;1977;52.274;10.518;2023-05-23T08:34:22;19.10;99.90
3925;DHT22;1977;52.274;10.518;2023-05-23T08:36:49;19.20;99.90
3925;DHT22;1977;52.274;10.518;2023-05-23T08:39:18;19.20;99.90
3925;DHT22;1977;52.274;10.518;2023-05-23T08:41:45;19.20;99.90
3925;DHT22;1977;52.274;10.518;2023-05-23T08:44:12;19.30;99.90
3925;DHT22;1977;52.274;10.518;2023-05-23T08:46:43;19.10;99.90
3925;DHT22;1977;52.274;10.518;2023-05-23T08:49:12;19.10;99.90
3925;DHT22;1977;52.274;10.518;2023-05-23T08:51:42;19.10;99.90
3925;DHT22;1977;52.274;10.518;2023-05-23T08:54:10;19.10;99.90
3925;DHT22;1977;52.274;10.518;2023-05-23T08:56:39;19.10;99.90
3925;DHT22;1977;52.274;10.518;2023-05-23T08:59:08;19.00;99.90
3925;DHT22;1977;52.274;10.518;2023-05-23T09:01:36;19.00;99.90
3925;DHT22;1977;52.274;10.518;2023-05-23T09:04:06;19.10;99.90
3925;DHT22;1977;52.274;10.518;2023-05-23T09:06:34;19.20;99.90
3925;DHT22;1977;52.274;10.518;2023-05-23T09:09:01;19.00;99.90
3925;DHT22;1977;52.274;10.518;2023-05-23T09:11:28;19.20;99.90
3925;DHT22;1977;52.274;10.518;2023-05-23T09:13:59;19.10;99.90
3925;DHT22;1977;52.274;10.518;2023-05-23T09:16:31;19.00;99.90
3925;DHT22;1977;52.274;10.518;2023-05-23T09:18:59;19.00;99.90
3925;DHT22;1977;52.274;10.518;2023-05-23T09:21:35;19.00;99.90
3925;DHT22;1977;52.274;10.518;2023-05-23T09:24:02;18.90;99.90
3925;DHT22;1977;52.274;10.518;2023-05-23T09:26:29;18.90;99.90
3925;DHT22;1977;52.274;10.518;2023-05-23T09:28:57;18.80;99.90
3925;DHT22;1977;52.274;10.518;2023-05-23T09:31:31;18.70;99.90
3925;DHT22;1977;52.274;10.518;2023-05-23T09:34:04;18.70;99.90
3925;DHT22;1977;52.274;10.518;2023-05-23T09:36:33;18.80;99.90
3925;DHT22;1977;52.274;10.518;2023-05-23T09:39:20;18.80;99.90
3925;DHT22;1977;52.274;10.518;2023-05-23T09:41:50;18.70;99.90
3925;DHT22;1977;52.274;10.518;2023-05-23T09:44:22;19.00;99.90
3925;DHT22;1977;52.274;10.518;2023-05-23T09:46:51;18.70;99.90
3925;DHT22;1977;52.274;10.518;2023-05-23T09:49:18;18.80;99.90
3925;DHT22;1977;52.274;10.518;2023-05-23T09:51:56;18.70;99.90
3925;DHT22;1977;52.274;10.518;2023-05-23T09:54:23;18.60;99.90
3925;DHT22;1977;52.274;10.518;2023-05-23T09:56:52;18.60;99.90
3925;DHT22;1977;52.274;10.518;2023-05-23T09:59:21;18.70;99.90
3925;DHT22;1977;52.274;10.518;2023-05-23T10:01:54;18.50;99.90
3925;DHT22;1977;52.274;10.518;2023-05-23T10:04:24;18.50;99.90
3925;DHT22;1977;52.274;10.518;2023-05-23T10:06:55;18.50;99.90
3925;DHT22;1977;52.274;10.518;2023-05-23T10:09:25;18.50;99.90
3925;DHT22;1977;52.274;10.518;2023-05-23T10:12:19;18.40;99.90
3925;DHT22;1977;52.274;10.518;2023-05-23T10:14:51;18.50;99.90
3925;DHT22;1977;52.274;10.518;2023-05-23T10:17:26;18.50;99.90
3925;DHT22;1977;52.274;10.518;2023-05-23T10:19:58;18.40;99.90
3925;DHT22;1977;52.274;10.518;2023-05-23T10:22:27;18.40;99.90
3925;DHT22;1977;52.274;10.518;2023-05-23T10:24:54;18.30;99.90
3925;DHT22;1977;52.274;10.518;2023-05-23T10:27:21;18.30;99.90
3925;DHT22;1977;52.274;10.518;2023-05-23T10:29:48;18.40;99.90
3925;DHT22;1977;52.274;10.518;2023-05-23T10:32:15;18.40;99.90
3925;DHT22;1977;52.274;10.518;2023-05-23T10:34:53;18.30;99.90
3925;DHT22;1977;52.274;10.518;2023-05-23T10:37:26;18.20;99.90
3925;DHT22;1977;52.274;10.518;2023-05-23T10:40:00;18.20;99.90
3925;DHT22;1977;52.274;10.518;2023-05-23T10:42:37;18.10;99.90
3925;DHT22;1977;52.274;10.518;2023-05-23T10:45:19;18.10;99.90
3925;DHT22;1977;52.274;10.518;2023-05-23T10:47:47;18.00;99.90
3925;DHT22;1977;52.274;10.518;2023-05-23T10:50:28;17.80;99.90
3925;DHT22;1977;52.274;10.518;2023-05-23T10:52:56;17.90;99.90
3925;DHT22;1977;52.274;10.518;2023-05-23T10:55:25;17.90;99.90
3925;DHT22;1977;52.274;10.518;2023-05-23T10:58:11;17.90;99.90
3925;DHT22;1977;52.274;10.518;2023-05-23T11:00:38;17.80;99.90
3925;DHT22;1977;52.274;10.518;2023-05-23T11:03:05;17.80;99.90
3925;DHT22;1977;52.274;10.518;2023-05-23T11:05:37;17.80;99.90
3925;DHT22;1977;52.274;10.518;2023-05-23T11:08:14;17.80;99.90
3925;DHT22;1977;52.274;10.518;2023-05-23T11:10:55;17.70;99.90
3925;DHT22;1977;52.274;10.518;2023-05-23T11:13:24;17.60;99.90
3925;DHT22;1977;52.274;10.518;2023-05-23T11:15:51;17.50;99.90
3925;DHT22;1977;52.274;10.518;2023-05-23T11:18:22;17.50;99.90
3925;DHT22;1977;52.274;10.518;2023-05-23T11:20:54;17.50;99.90
3925;DHT22;1977;52.274;10.518;2023-05-23T11:23:38;17.60;99.90
3925;DHT22;1977;52.274;10.518;2023-05-23T11:26:28;17.50;99.90
3925;DHT22;1977;52.274;10.518;2023-05-23T11:28:55;17.50;99.90
3925;DHT22;1977;52.274;10.518;2023-05-23T11:31:23;17.60;99.90
3925;DHT22;1977;52.274;10.518;2023-05-23T11:33:50;17.60;99.90
3925;DHT22;1977;52.274;10.518;2023-05-23T11:36:20;17.60;99.90
3925;DHT22;1977;52.274;10.518;2023-05-23T11:38:47;17.70;99.90
3925;DHT22;1977;52.274;10.518;2023-05-23T11:41:14;17.50;99.90
3925;DHT22;1977;52.274;10.518;2023-05-23T11:43:48;17.60;99.90
3925;DHT22;1977;52.274;10.518;2023-05-23T11:46:16;17.40;99.90
3925;DHT22;1977;52.274;10.518;2023-05-23T11:48:44;17.40;99.90
3925;DHT22;1977;52.274;10.518;2023-05-23T11:51:11;17.10;99.90
3925;DHT22;1977;52.274;10.518;2023-05-23T11:53:39;17.30;99.90
3925;DHT22;1977;52.274;10.518;2023-05-23T11:56:06;17.20;99.90
3925;DHT22;1977;52.274;10.518;2023-05-23T11:58:35;17.40;99.90
3925;DHT22;1977;52.274;10.518;2023-05-23T12:01:02;17.20;99.90
3925;DHT22;1977;52.274;10.518;2023-05-23T12:03:30;17.10;99.90
3925;DHT22;1977;52.274;10.518;2023-05-23T12:05:57;17.10;99.90
3925;DHT22;1977;52.274;10.518;2023-05-23T12:08:24;17.20;99.90
3925;DHT22;1977;52.274;10.518;2023-05-23T12:10:55;17.10;99.90
3925;DHT22;1977;52.274;10.518;2023-05-23T12:13:24;17.00;99.90
3925;DHT22;1977;52.274;10.518;2023-05-23T12:15:53;16.90;99.90
3925;DHT22;1977;52.274;10.518;2023-05-23T12:18:20;16.90;99.90
3925;DHT22;1977;52.274;10.518;2023-05-23T12:20:48;16.90;99.90
3925;DHT22;1977;52.274;10.518;2023-05-23T12:23:17;16.90;99.90
3925;DHT22;1977;52.274;10.518;2023-05-23T12:25:49;16.90;99.90
3925;DHT22;1977;52.274;10.518;2023-05-23T12:28:17;17.20;99.90
3925;DHT22;1977;52.274;10.518;2023-05-23T12:30:45;17.20;99.90
3925;DHT22;1977;52.274;10.518;2023-05-23T12:33:13;17.00;99.90
3925;DHT22;1977;52.274;10.518;2023-05-23T12:35:42;16.90;99.90
3925;DHT22;1977;52.274;10.518;2023-05-23T12:38:14;17.00;99.90
3925;DHT22;1977;52.274;10.518;2023-05-23T12:40:40;17.00;99.90
3925;DHT22;1977;52.274;10.518;2023-05-23T12:43:08;17.00;99.90
3925;DHT22;1977;52.274;10.518;2023-05-23T12:45:36;17.00;99.90
3925;DHT22;1977;52.274;10.518;2023-05-23T12:48:03;17.00;99.90
3925;DHT22;1977;52.274;10.518;2023-05-23T12:50:31;17.00;99.90
3925;DHT22;1977;52.274;10.518;2023-05-23T12:52:58;17.00;99.90
3925;DHT22;1977;52.274;10.518;2023-05-23T12:55:25;16.90;99.90
3925;DHT22;1977;52.274;10.518;2023-05-23T12:57:51;16.90;99.90
3925;DHT22;1977;52.274;10.518;2023-05-23T13:00:20;16.90;99.90
3925;DHT22;1977;52.274;10.518;2023-05-23T13:02:48;16.90;99.90
3925;DHT22;1977;52.274;10.518;2023-05-23T13:05:16;17.00;99.90
3925;DHT22;1977;52.274;10.518;2023-05-23T13:07:43;17.10;99.90
3925;DHT22;1977;52.274;10.518;2023-05-23T13:10:10;17.00;99.90
3925;DHT22;1977;52.274;10.518;2023-05-23T13:12:36;17.00;99.90
3925;DHT22;1977;52.274;10.518;2023-05-23T13:15:04;17.10;99.90
3925;DHT22;1977;52.274;10.518;2023-05-23T13:17:31;17.20;99.90
3925;DHT22;1977;52.274;10.518;2023-05-23T13:19:59;17.20;99.90
3925;DHT22;1977;52.274;10.518;2023-05-23T13:22:27;17.30;99.90
3925;DHT22;1977;52.274;10.518;2023-05-23T13:24:54;17.40;99.90
3925;DHT22;1977;52.274;10.518;2023-05-23T13:27:21;17.50;99.90
3925;DHT22;1977;52.274;10.518;2023-05-23T13:29:47;17.50;99.90
3925;DHT22;1977;52.274;10.518;2023-05-23T13:32:14;17.60;99.90
3925;DHT22;1977;52.274;10.518;2023-05-23T13:34:41;17.70;99.90
3925;DHT22;1977;52.274;10.518;2023-05-23T13:37:09;17.80;99.90
3925;DHT22;1977;52.274;10.518;2023-05-23T13:39:36;17.90;99.90
3925;DHT22;1977;52.274;10.518;2023-05-23T13:42:03;17.90;99.90
3925;DHT22;1977;52.274;10.518;2023-05-23T13:44:30;18.00;99.90
3925;DHT22;1977;52.274;10.518;2023-05-23T13:47:03;17.90;99.90
3925;DHT22;1977;52.274;10.518;2023-05-23T13:49:35;17.90;99.90
3925;DHT22;1977;52.274;10.518;2023-05-23T13:52:01;17.90;99.90
3925;DHT22;1977;52.274;10.518;2023-05-23T13:54:29;17.90;99.90
3925;DHT22;1977;52.274;10.518;2023-05-23T13:56:56;17.90;99.90
3925;DHT22;1977;52.274;10.518;2023-05-23T13:59:24;18.00;99.90
3925;DHT22;1977;52.274;10.518;2023-05-23T14:01:51;18.30;99.90
3925;DHT22;1977;52.274;10.518;2023-05-23T14:04:18;17.90;99.90
3925;DHT22;1977;52.274;10.518;2023-05-23T14:06:45;17.60;99.90
3925;DHT22;1977;52.274;10.518;2023-05-23T14:09:12;17.50;99.90
3925;DHT22;1977;52.274;10.518;2023-05-23T14:11:40;17.40;99.90
3925;DHT22;1977;52.274;10.518;2023-05-23T14:14:07;17.30;99.90
3925;DHT22;1977;52.274;10.518;2023-05-23T14:16:34;17.30;99.90
